sensor_id;sensor_type;location;lat;lon;timestamp;pressure;altitude;pressure_sealevel;temperature;humidity
57024;BME280;42916;54.346;18.562;2023-07-13T00:01:50;99944.40;;;15.20;95.55
57024;BME280;42916;54.346;18.562;2023-07-13T00:04:20;99950.38;;;15.14;95.57
57024;BME280;42916;54.346;18.562;2023-07-13T00:06:47;99953.43;;;15.09;95.70
57024;BME280;42916;54.346;18.562;2023-07-13T00:09:15;99964.45;;;15.04;95.98
57024;BME280;42916;54.346;18.562;2023-07-13T00:11:44;99961.92;;;15.01;96.22
57024;BME280;42916;54.346;18.562;2023-07-13T00:14:11;99964.71;;;14.98;96.50
57024;BME280;42916;54.346;18.562;2023-07-13T00:16:39;99961.64;;;14.98;96.84
57024;BME280;42916;54.346;18.562;2023-07-13T00:19:07;99969.19;;;14.98;97.16
57024;BME280;42916;54.346;18.562;2023-07-13T00:21:34;99968.48;;;14.97;96.77
57024;BME280;42916;54.346;18.562;2023-07-13T00:24:01;99959.14;;;14.89;96.72
57024;BME280;42916;54.346;18.562;2023-07-13T00:26:28;99958.39;;;14.83;97.12
57024;BME280;42916;54.346;18.562;2023-07-13T00:28:55;99950.85;;;14.82;97.50
57024;BME280;42916;54.346;18.562;2023-07-13T00:31:22;99943.70;;;14.81;97.61
57024;BME280;42916;54.346;18.562;2023-07-13T00:33:49;99934.34;;;14.80;97.74
57024;BME280;42916;54.346;18.562;2023-07-13T00:36:19;99927.15;;;14.80;98.28
57024;BME280;42916;54.346;18.562;2023-07-13T00:38:47;99922.27;;;14.80;98.24
57024;BME280;42916;54.346;18.562;2023-07-13T00:41:14;99928.45;;;14.82;98.47
57024;BME280;42916;54.346;18.562;2023-07-13T00:43:40;99930.58;;;14.83;98.42
57024;BME280;42916;54.346;18.562;2023-07-13T00:46:30;99928.63;;;14.81;98.50
57024;BME280;42916;54.346;18.562;2023-07-13T00:49:02;99921.31;;;14.80;98.52
57024;BME280;42916;54.346;18.562;2023-07-13T00:52:00;99922.95;;;14.80;98.98
57024;BME280;42916;54.346;18.562;2023-07-13T00:54:29;99925.89;;;14.80;99.22
57024;BME280;42916;54.346;18.562;2023-07-13T00:56:58;99931.89;;;14.79;99.35
57024;BME280;42916;54.346;18.562;2023-07-13T00:59:26;99937.94;;;14.77;99.27
57024;BME280;42916;54.346;18.562;2023-07-13T01:01:53;99948.17;;;14.74;99.01
57024;BME280;42916;54.346;18.562;2023-07-13T01:04:24;99955.95;;;14.69;98.79
57024;BME280;42916;54.346;18.562;2023-07-13T01:06:51;99955.02;;;14.64;98.87
57024;BME280;42916;54.346;18.562;2023-07-13T01:09:19;99963.00;;;14.61;98.86
57024;BME280;42916;54.346;18.562;2023-07-13T01:11:47;99961.98;;;14.57;99.27
57024;BME280;42916;54.346;18.562;2023-07-13T01:14:15;99967.94;;;14.57;99.35
57024;BME280;42916;54.346;18.562;2023-07-13T01:16:46;99968.75;;;14.54;99.62
57024;BME280;42916;54.346;18.562;2023-07-13T01:19:26;99970.70;;;14.51;99.73
57024;BME280;42916;54.346;18.562;2023-07-13T01:22:09;99972.75;;;14.50;99.94
57024;BME280;42916;54.346;18.562;2023-07-13T01:24:39;99974.67;;;14.48;99.98
57024;BME280;42916;54.346;18.562;2023-07-13T01:27:08;99974.29;;;14.48;100.00
57024;BME280;42916;54.346;18.562;2023-07-13T01:29:37;99974.35;;;14.52;100.00
57024;BME280;42916;54.346;18.562;2023-07-13T01:32:13;99970.86;;;14.56;100.00
57024;BME280;42916;54.346;18.562;2023-07-13T01:34:41;99973.20;;;14.58;100.00
57024;BME280;42916;54.346;18.562;2023-07-13T01:37:12;99971.95;;;14.64;100.00
57024;BME280;42916;54.346;18.562;2023-07-13T01:39:39;99973.27;;;14.68;100.00
57024;BME280;42916;54.346;18.562;2023-07-13T01:42:06;99978.19;;;14.73;100.00
57024;BME280;42916;54.346;18.562;2023-07-13T01:44:33;99977.71;;;14.76;100.00
57024;BME280;42916;54.346;18.562;2023-07-13T01:47:01;99977.55;;;14.79;100.00
57024;BME280;42916;54.346;18.562;2023-07-13T01:49:28;99980.48;;;14.81;100.00
57024;BME280;42916;54.346;18.562;2023-07-13T01:51:55;99986.05;;;14.83;100.00
57024;BME280;42916;54.346;18.562;2023-07-13T01:54:21;99987.95;;;14.79;100.00
57024;BME280;42916;54.346;18.562;2023-07-13T01:56:51;99992.64;;;14.72;100.00
57024;BME280;42916;54.346;18.562;2023-07-13T01:59:17;99998.03;;;14.66;100.00
57024;BME280;42916;54.346;18.562;2023-07-13T02:01:44;100003.22;;;14.63;100.00
57024;BME280;42916;54.346;18.562;2023-07-13T02:04:11;100003.54;;;14.59;100.00
57024;BME280;42916;54.346;18.562;2023-07-13T02:06:38;100002.14;;;14.55;100.00
57024;BME280;42916;54.346;18.562;2023-07-13T02:09:04;100003.96;;;14.53;100.00
57024;BME280;42916;54.346;18.562;2023-07-13T02:11:33;100003.74;;;14.53;100.00
57024;BME280;42916;54.346;18.562;2023-07-13T02:14:00;100006.08;;;14.55;100.00
57024;BME280;42916;54.346;18.562;2023-07-13T02:16:30;100008.34;;;14.58;100.00
57024;BME280;42916;54.346;18.562;2023-07-13T02:18:57;100010.46;;;14.62;100.00
57024;BME280;42916;54.346;18.562;2023-07-13T02:21:25;100011.23;;;14.64;100.00
57024;BME280;42916;54.346;18.562;2023-07-13T02:23:52;100012.94;;;14.65;100.00
57024;BME280;42916;54.346;18.562;2023-07-13T02:26:19;100007.85;;;14.69;100.00
57024;BME280;42916;54.346;18.562;2023-07-13T02:28:46;100012.01;;;14.74;100.00
57024;BME280;42916;54.346;18.562;2023-07-13T02:31:15;100005.30;;;14.77;100.00
57024;BME280;42916;54.346;18.562;2023-07-13T02:33:42;100005.00;;;14.78;100.00
57024;BME280;42916;54.346;18.562;2023-07-13T02:36:10;99999.97;;;14.81;100.00
57024;BME280;42916;54.346;18.562;2023-07-13T02:38:37;100000.44;;;14.80;100.00
57024;BME280;42916;54.346;18.562;2023-07-13T02:41:06;100004.60;;;14.79;100.00
57024;BME280;42916;54.346;18.562;2023-07-13T02:43:33;100000.45;;;14.79;100.00
57024;BME280;42916;54.346;18.562;2023-07-13T02:46:01;99999.73;;;14.80;100.00
57024;BME280;42916;54.346;18.562;2023-07-13T02:48:34;99996.02;;;14.82;100.00
57024;BME280;42916;54.346;18.562;2023-07-13T02:51:01;99994.83;;;14.82;100.00
57024;BME280;42916;54.346;18.562;2023-07-13T02:53:28;99993.31;;;14.81;100.00
57024;BME280;42916;54.346;18.562;2023-07-13T02:55:55;99997.66;;;14.82;100.00
57024;BME280;42916;54.346;18.562;2023-07-13T02:58:22;99999.88;;;14.85;100.00
57024;BME280;42916;54.346;18.562;2023-07-13T03:00:49;99996.45;;;14.87;100.00
57024;BME280;42916;54.346;18.562;2023-07-13T03:03:17;99995.21;;;14.91;100.00
57024;BME280;42916;54.346;18.562;2023-07-13T03:05:45;100000.52;;;14.94;100.00
57024;BME280;42916;54.346;18.562;2023-07-13T03:08:17;99995.15;;;14.99;100.00
57024;BME280;42916;54.346;18.562;2023-07-13T03:10:45;99992.67;;;15.04;100.00
57024;BME280;42916;54.346;18.562;2023-07-13T03:13:13;99989.95;;;15.08;100.00
57024;BME280;42916;54.346;18.562;2023-07-13T03:15:40;99984.06;;;15.11;100.00
57024;BME280;42916;54.346;18.562;2023-07-13T03:18:06;99980.90;;;15.16;100.00
57024;BME280;42916;54.346;18.562;2023-07-13T03:20:34;99979.80;;;15.19;100.00
57024;BME280;42916;54.346;18.562;2023-07-13T03:23:01;99981.79;;;15.22;100.00
57024;BME280;42916;54.346;18.562;2023-07-13T03:25:30;99983.63;;;15.24;100.00
57024;BME280;42916;54.346;18.562;2023-07-13T03:27:56;99991.47;;;15.27;100.00
57024;BME280;42916;54.346;18.562;2023-07-13T03:30:24;99994.28;;;15.32;100.00
57024;BME280;42916;54.346;18.562;2023-07-13T03:32:50;99989.48;;;15.35;100.00
57024;BME280;42916;54.346;18.562;2023-07-13T03:35:18;99985.16;;;15.39;100.00
57024;BME280;42916;54.346;18.562;2023-07-13T03:37:45;99986.73;;;15.43;100.00
57024;BME280;42916;54.346;18.562;2023-07-13T03:40:15;99982.84;;;15.46;100.00
57024;BME280;42916;54.346;18.562;2023-07-13T03:42:44;99979.73;;;15.49;100.00
57024;BME280;42916;54.346;18.562;2023-07-13T03:45:10;99979.31;;;15.51;100.00
57024;BME280;42916;54.346;18.562;2023-07-13T03:47:37;99982.45;;;15.54;100.00
57024;BME280;42916;54.346;18.562;2023-07-13T03:50:05;99982.25;;;15.56;100.00
57024;BME280;42916;54.346;18.562;2023-07-13T03:52:32;99986.41;;;15.59;100.00
57024;BME280;42916;54.346;18.562;2023-07-13T03:54:59;99989.27;;;15.64;100.00
57024;BME280;42916;54.346;18.562;2023-07-13T03:57:26;99989.67;;;15.68;100.00
57024;BME280;42916;54.346;18.562;2023-07-13T03:59:53;99997.56;;;15.73;100.00
57024;BME280;42916;54.346;18.562;2023-07-13T04:02:20;99999.47;;;15.78;100.00
57024;BME280;42916;54.346;18.562;2023-07-13T04:04:47;100001.41;;;15.84;100.00
57024;BME280;42916;54.346;18.562;2023-07-13T04:07:14;99999.77;;;15.93;100.00
57024;BME280;42916;54.346;18.562;2023-07-13T04:09:40;100002.36;;;15.99;100.00
57024;BME280;42916;54.346;18.562;2023-07-13T04:12:07;100003.55;;;16.06;100.00
57024;BME280;42916;54.346;18.562;2023-07-13T04:14:34;100006.39;;;16.13;100.00
57024;BME280;42916;54.346;18.562;2023-07-13T04:17:01;100011.91;;;16.19;100.00
57024;BME280;42916;54.346;18.562;2023-07-13T04:19:27;100014.39;;;16.26;100.00
57024;BME280;42916;54.346;18.562;2023-07-13T04:21:54;100015.92;;;16.32;100.00
57024;BME280;42916;54.346;18.562;2023-07-13T04:24:21;100022.61;;;16.39;100.00
57024;BME280;42916;54.346;18.562;2023-07-13T04:26:48;100030.24;;;16.44;100.00
57024;BME280;42916;54.346;18.562;2023-07-13T04:29:14;100024.25;;;16.51;100.00
57024;BME280;42916;54.346;18.562;2023-07-13T04:31:41;100032.27;;;16.58;100.00
57024;BME280;42916;54.346;18.562;2023-07-13T04:34:08;100026.75;;;16.66;100.00
57024;BME280;42916;54.346;18.562;2023-07-13T04:36:35;100033.20;;;16.73;100.00
57024;BME280;42916;54.346;18.562;2023-07-13T04:39:04;100040.79;;;16.81;100.00
57024;BME280;42916;54.346;18.562;2023-07-13T04:41:30;100034.08;;;16.88;100.00
57024;BME280;42916;54.346;18.562;2023-07-13T04:43:57;100026.86;;;16.97;100.00
57024;BME280;42916;54.346;18.562;2023-07-13T04:46:24;100017.29;;;17.08;100.00
57024;BME280;42916;54.346;18.562;2023-07-13T04:48:51;100014.07;;;17.17;100.00
57024;BME280;42916;54.346;18.562;2023-07-13T04:51:19;100014.89;;;17.24;100.00
57024;BME280;42916;54.346;18.562;2023-07-13T04:53:46;100018.00;;;17.33;100.00
57024;BME280;42916;54.346;18.562;2023-07-13T04:56:13;100026.41;;;17.40;100.00
57024;BME280;42916;54.346;18.562;2023-07-13T04:58:40;100025.30;;;17.47;100.00
57024;BME280;42916;54.346;18.562;2023-07-13T05:01:07;100023.14;;;17.56;100.00
57024;BME280;42916;54.346;18.562;2023-07-13T05:03:35;100030.10;;;17.65;100.00
57024;BME280;42916;54.346;18.562;2023-07-13T05:06:07;100028.94;;;17.73;100.00
57024;BME280;42916;54.346;18.562;2023-07-13T05:08:36;100025.60;;;17.81;100.00
57024;BME280;42916;54.346;18.562;2023-07-13T05:11:04;100019.55;;;17.87;100.00
57024;BME280;42916;54.346;18.562;2023-07-13T05:13:32;100020.21;;;17.94;100.00
57024;BME280;42916;54.346;18.562;2023-07-13T05:16:01;100021.70;;;18.00;100.00
57024;BME280;42916;54.346;18.562;2023-07-13T05:18:29;100025.71;;;18.07;100.00
57024;BME280;42916;54.346;18.562;2023-07-13T05:20:58;100031.77;;;18.14;100.00
57024;BME280;42916;54.346;18.562;2023-07-13T05:23:26;100038.61;;;18.21;99.88
57024;BME280;42916;54.346;18.562;2023-07-13T05:25:53;100042.30;;;18.29;99.56
57024;BME280;42916;54.346;18.562;2023-07-13T05:28:21;100047.80;;;18.36;99.16
57024;BME280;42916;54.346;18.562;2023-07-13T05:30:49;100056.02;;;18.42;98.02
57024;BME280;42916;54.346;18.562;2023-07-13T05:33:16;100053.60;;;18.48;97.96
57024;BME280;42916;54.346;18.562;2023-07-13T05:35:43;100053.58;;;18.55;97.47
57024;BME280;42916;54.346;18.562;2023-07-13T05:38:09;100058.23;;;18.63;96.74
57024;BME280;42916;54.346;18.562;2023-07-13T05:40:37;100063.83;;;18.73;96.76
57024;BME280;42916;54.346;18.562;2023-07-13T05:43:04;100061.94;;;18.82;96.23
57024;BME280;42916;54.346;18.562;2023-07-13T05:45:30;100068.30;;;18.91;95.92
57024;BME280;42916;54.346;18.562;2023-07-13T05:47:57;100073.42;;;18.99;95.21
57024;BME280;42916;54.346;18.562;2023-07-13T05:50:25;100080.92;;;19.07;94.90
57024;BME280;42916;54.346;18.562;2023-07-13T05:52:52;100083.52;;;19.13;94.24
57024;BME280;42916;54.346;18.562;2023-07-13T05:55:20;100085.34;;;19.22;93.79
57024;BME280;42916;54.346;18.562;2023-07-13T05:57:47;100087.56;;;19.27;92.18
57024;BME280;42916;54.346;18.562;2023-07-13T06:00:14;100085.88;;;19.28;90.89
57024;BME280;42916;54.346;18.562;2023-07-13T06:02:42;100087.08;;;19.30;90.85
57024;BME280;42916;54.346;18.562;2023-07-13T06:05:09;100085.24;;;19.36;91.11
57024;BME280;42916;54.346;18.562;2023-07-13T06:07:36;100085.35;;;19.44;90.84
57024;BME280;42916;54.346;18.562;2023-07-13T06:10:03;100090.27;;;19.51;90.23
57024;BME280;42916;54.346;18.562;2023-07-13T06:12:30;100095.79;;;19.56;88.31
57024;BME280;42916;54.346;18.562;2023-07-13T06:14:57;100098.73;;;19.61;87.99
57024;BME280;42916;54.346;18.562;2023-07-13T06:17:23;100105.66;;;19.67;86.34
57024;BME280;42916;54.346;18.562;2023-07-13T06:19:50;100103.13;;;19.72;86.01
57024;BME280;42916;54.346;18.562;2023-07-13T06:22:17;100107.84;;;19.78;85.76
57024;BME280;42916;54.346;18.562;2023-07-13T06:24:44;100107.91;;;19.88;85.67
57024;BME280;42916;54.346;18.562;2023-07-13T06:27:11;100113.77;;;19.96;85.40
57024;BME280;42916;54.346;18.562;2023-07-13T06:29:37;100120.89;;;20.05;84.64
57024;BME280;42916;54.346;18.562;2023-07-13T06:32:05;100120.56;;;20.11;84.02
57024;BME280;42916;54.346;18.562;2023-07-13T06:34:32;100125.46;;;20.19;83.15
57024;BME280;42916;54.346;18.562;2023-07-13T06:36:58;100124.21;;;20.28;82.66
57024;BME280;42916;54.346;18.562;2023-07-13T06:39:25;100124.88;;;20.35;82.66
57024;BME280;42916;54.346;18.562;2023-07-13T06:41:52;100122.46;;;20.41;82.52
57024;BME280;42916;54.346;18.562;2023-07-13T06:44:18;100124.50;;;20.46;81.66
57024;BME280;42916;54.346;18.562;2023-07-13T06:46:45;100124.81;;;20.49;81.28
57024;BME280;42916;54.346;18.562;2023-07-13T06:49:12;100123.60;;;20.54;81.09
57024;BME280;42916;54.346;18.562;2023-07-13T06:51:39;100120.25;;;20.57;80.22
57024;BME280;42916;54.346;18.562;2023-07-13T06:54:06;100120.48;;;20.55;79.46
57024;BME280;42916;54.346;18.562;2023-07-13T06:56:32;100122.23;;;20.56;78.71
57024;BME280;42916;54.346;18.562;2023-07-13T06:58:59;100128.31;;;20.61;78.56
57024;BME280;42916;54.346;18.562;2023-07-13T07:01:26;100129.41;;;20.59;77.09
57024;BME280;42916;54.346;18.562;2023-07-13T07:03:53;100141.45;;;20.53;76.46
57024;BME280;42916;54.346;18.562;2023-07-13T07:06:21;100141.36;;;20.43;75.01
57024;BME280;42916;54.346;18.562;2023-07-13T07:08:51;100143.73;;;20.40;75.36
57024;BME280;42916;54.346;18.562;2023-07-13T07:11:27;100141.53;;;20.47;75.98
57024;BME280;42916;54.346;18.562;2023-07-13T07:13:53;100135.98;;;20.67;76.71
57024;BME280;42916;54.346;18.562;2023-07-13T07:16:21;100128.91;;;20.84;76.52
57024;BME280;42916;54.346;18.562;2023-07-13T07:18:48;100128.67;;;20.94;75.68
57024;BME280;42916;54.346;18.562;2023-07-13T07:21:15;100132.20;;;21.00;75.05
57024;BME280;42916;54.346;18.562;2023-07-13T07:23:42;100139.58;;;20.99;73.39
57024;BME280;42916;54.346;18.562;2023-07-13T07:26:10;100133.81;;;21.00;73.94
57024;BME280;42916;54.346;18.562;2023-07-13T07:28:37;100135.48;;;21.12;74.30
57024;BME280;42916;54.346;18.562;2023-07-13T07:31:03;100135.93;;;21.13;72.70
57024;BME280;42916;54.346;18.562;2023-07-13T07:33:32;100136.60;;;21.04;72.89
57024;BME280;42916;54.346;18.562;2023-07-13T07:35:59;100134.23;;;21.00;72.88
57024;BME280;42916;54.346;18.562;2023-07-13T07:38:26;100127.70;;;20.91;72.97
57024;BME280;42916;54.346;18.562;2023-07-13T07:40:53;100128.73;;;20.84;72.85
57024;BME280;42916;54.346;18.562;2023-07-13T07:43:20;100129.54;;;20.88;72.88
57024;BME280;42916;54.346;18.562;2023-07-13T07:45:46;100130.03;;;20.94;73.11
57024;BME280;42916;54.346;18.562;2023-07-13T07:48:13;100131.97;;;20.91;71.46
57024;BME280;42916;54.346;18.562;2023-07-13T07:50:41;100138.52;;;20.85;71.74
57024;BME280;42916;54.346;18.562;2023-07-13T07:53:07;100146.34;;;20.85;71.22
57024;BME280;42916;54.346;18.562;2023-07-13T07:55:36;100148.10;;;20.88;70.33
57024;BME280;42916;54.346;18.562;2023-07-13T07:58:04;100149.38;;;20.96;71.18
57024;BME280;42916;54.346;18.562;2023-07-13T08:00:32;100150.24;;;21.15;71.47
57024;BME280;42916;54.346;18.562;2023-07-13T08:02:59;100157.65;;;21.26;70.89
57024;BME280;42916;54.346;18.562;2023-07-13T08:05:26;100157.17;;;21.30;68.67
57024;BME280;42916;54.346;18.562;2023-07-13T08:07:54;100157.05;;;21.33;68.97
57024;BME280;42916;54.346;18.562;2023-07-13T08:10:20;100156.45;;;21.37;68.17
57024;BME280;42916;54.346;18.562;2023-07-13T08:12:47;100159.42;;;21.45;67.94
57024;BME280;42916;54.346;18.562;2023-07-13T08:15:16;100161.20;;;21.47;65.36
57024;BME280;42916;54.346;18.562;2023-07-13T08:17:43;100160.83;;;21.48;64.98
57024;BME280;42916;54.346;18.562;2023-07-13T08:20:10;100165.90;;;21.56;64.90
57024;BME280;42916;54.346;18.562;2023-07-13T08:22:37;100163.12;;;21.58;65.28
57024;BME280;42916;54.346;18.562;2023-07-13T08:25:04;100158.48;;;21.52;65.23
57024;BME280;42916;54.346;18.562;2023-07-13T08:27:32;100165.80;;;21.47;65.82
57024;BME280;42916;54.346;18.562;2023-07-13T08:30:00;100165.63;;;21.45;65.77
57024;BME280;42916;54.346;18.562;2023-07-13T08:32:27;100168.24;;;21.45;65.33
57024;BME280;42916;54.346;18.562;2023-07-13T08:34:54;100165.83;;;21.48;64.72
57024;BME280;42916;54.346;18.562;2023-07-13T08:37:20;100162.41;;;21.52;63.47
57024;BME280;42916;54.346;18.562;2023-07-13T08:39:47;100158.83;;;21.61;63.71
57024;BME280;42916;54.346;18.562;2023-07-13T08:45:01;100166.66;;;21.82;62.43
57024;BME280;42916;54.346;18.562;2023-07-13T08:47:32;100172.25;;;21.90;60.97
57024;BME280;42916;54.346;18.562;2023-07-13T08:50:03;100168.36;;;21.87;60.78
57024;BME280;42916;54.346;18.562;2023-07-13T08:52:38;100171.85;;;21.89;59.18
57024;BME280;42916;54.346;18.562;2023-07-13T08:55:13;100170.92;;;21.90;60.42
57024;BME280;42916;54.346;18.562;2023-07-13T08:57:42;100160.33;;;22.11;61.36
57024;BME280;42916;54.346;18.562;2023-07-13T09:00:12;100158.56;;;22.36;61.31
57024;BME280;42916;54.346;18.562;2023-07-13T09:02:57;100151.84;;;22.54;60.75
57024;BME280;42916;54.346;18.562;2023-07-13T09:05:33;100155.52;;;22.60;58.53
57024;BME280;42916;54.346;18.562;2023-07-13T09:09:06;100158.61;;;22.53;57.35
57024;BME280;42916;54.346;18.562;2023-07-13T09:16:38;100154.39;;;22.52;55.99
57024;BME280;42916;54.346;18.562;2023-07-13T09:19:11;100149.39;;;22.37;55.20
57024;BME280;42916;54.346;18.562;2023-07-13T09:21:42;100143.78;;;22.30;56.00
57024;BME280;42916;54.346;18.562;2023-07-13T09:26:56;100138.98;;;22.58;57.23
57024;BME280;42916;54.346;18.562;2023-07-13T09:29:30;100132.77;;;22.78;57.23
57024;BME280;42916;54.346;18.562;2023-07-13T09:32:02;100139.48;;;22.96;56.60
57024;BME280;42916;54.346;18.562;2023-07-13T09:34:31;100136.07;;;23.03;56.29
57024;BME280;42916;54.346;18.562;2023-07-13T09:36:59;100136.02;;;23.08;55.68
57024;BME280;42916;54.346;18.562;2023-07-13T09:39:40;100134.31;;;23.19;55.66
57024;BME280;42916;54.346;18.562;2023-07-13T09:42:19;100133.79;;;23.30;52.90
57024;BME280;42916;54.346;18.562;2023-07-13T09:44:52;100132.46;;;23.26;52.69
57024;BME280;42916;54.346;18.562;2023-07-13T09:47:30;100133.53;;;23.24;52.19
57024;BME280;42916;54.346;18.562;2023-07-13T09:50:03;100139.08;;;23.22;52.29
57024;BME280;42916;54.346;18.562;2023-07-13T09:52:48;100140.46;;;23.25;52.66
57024;BME280;42916;54.346;18.562;2023-07-13T09:55:36;100133.38;;;23.25;52.50
57024;BME280;42916;54.346;18.562;2023-07-13T09:58:17;100133.55;;;23.37;53.54
57024;BME280;42916;54.346;18.562;2023-07-13T10:01:01;100139.16;;;23.45;52.35
57024;BME280;42916;54.346;18.562;2023-07-13T10:03:32;100140.58;;;23.34;52.45
57024;BME280;42916;54.346;18.562;2023-07-13T10:06:13;100139.64;;;23.27;52.53
57024;BME280;42916;54.346;18.562;2023-07-13T10:08:40;100136.33;;;23.43;52.92
57024;BME280;42916;54.346;18.562;2023-07-13T10:11:34;100128.55;;;23.53;52.48
57024;BME280;42916;54.346;18.562;2023-07-13T10:14:02;100134.95;;;23.89;53.17
57024;BME280;42916;54.346;18.562;2023-07-13T10:16:32;100145.62;;;24.09;52.34
57024;BME280;42916;54.346;18.562;2023-07-13T10:19:07;100141.11;;;24.20;51.94
57024;BME280;42916;54.346;18.562;2023-07-13T10:21:54;100143.18;;;24.18;51.39
57024;BME280;42916;54.346;18.562;2023-07-13T10:24:35;100147.20;;;24.06;51.30
57024;BME280;42916;54.346;18.562;2023-07-13T10:27:18;100162.23;;;23.83;52.23
57024;BME280;42916;54.346;18.562;2023-07-13T10:30:35;100170.48;;;23.45;52.92
57024;BME280;42916;54.346;18.562;2023-07-13T10:32:35;100186.06;;;22.80;54.47
57024;BME280;42916;54.346;18.562;2023-07-13T10:35:03;100194.98;;;22.38;55.87
57024;BME280;42916;54.346;18.562;2023-07-13T10:37:39;100189.98;;;21.94;57.27
57024;BME280;42916;54.346;18.562;2023-07-13T10:40:14;100192.91;;;21.51;58.34
57024;BME280;42916;54.346;18.562;2023-07-13T10:42:45;100196.75;;;21.34;59.49
57024;BME280;42916;54.346;18.562;2023-07-13T10:45:16;100198.17;;;21.39;59.78
57024;BME280;42916;54.346;18.562;2023-07-13T10:47:45;100194.88;;;21.34;59.68
57024;BME280;42916;54.346;18.562;2023-07-13T10:50:21;100187.48;;;21.48;60.47
57024;BME280;42916;54.346;18.562;2023-07-13T10:52:55;100190.05;;;21.73;59.60
57024;BME280;42916;54.346;18.562;2023-07-13T10:55:40;100185.36;;;21.99;59.70
57024;BME280;42916;54.346;18.562;2023-07-13T10:58:23;100188.91;;;22.35;59.29
57024;BME280;42916;54.346;18.562;2023-07-13T11:01:14;100198.52;;;22.55;58.63
57024;BME280;42916;54.346;18.562;2023-07-13T11:03:56;100202.08;;;22.51;56.87
57024;BME280;42916;54.346;18.562;2023-07-13T11:09:38;100202.20;;;22.52;57.19
57024;BME280;42916;54.346;18.562;2023-07-13T11:17:51;100193.40;;;23.25;57.90
57024;BME280;42916;54.346;18.562;2023-07-13T11:20:34;100191.09;;;23.42;56.13
57024;BME280;42916;54.346;18.562;2023-07-13T11:25:42;100203.70;;;23.22;55.97
57024;BME280;42916;54.346;18.562;2023-07-13T11:38:24;100208.52;;;23.22;56.97
57024;BME280;42916;54.346;18.562;2023-07-13T11:40:55;100205.63;;;23.42;57.78
57024;BME280;42916;54.346;18.562;2023-07-13T11:43:24;100202.77;;;23.45;58.12
57024;BME280;42916;54.346;18.562;2023-07-13T11:45:52;100202.44;;;23.52;58.73
57024;BME280;42916;54.346;18.562;2023-07-13T11:48:27;100198.48;;;23.67;59.25
57024;BME280;42916;54.346;18.562;2023-07-13T11:51:01;100201.36;;;23.71;59.44
57024;BME280;42916;54.346;18.562;2023-07-13T11:53:37;100203.22;;;23.84;59.45
57024;BME280;42916;54.346;18.562;2023-07-13T11:56:05;100204.50;;;23.89;59.54
57024;BME280;42916;54.346;18.562;2023-07-13T11:58:32;100203.88;;;23.95;59.25
57024;BME280;42916;54.346;18.562;2023-07-13T12:01:01;100203.52;;;24.07;59.47
57024;BME280;42916;54.346;18.562;2023-07-13T12:03:33;100205.27;;;24.40;59.20
57024;BME280;42916;54.346;18.562;2023-07-13T12:06:05;100202.52;;;24.57;58.90
57024;BME280;42916;54.346;18.562;2023-07-13T12:08:38;100206.31;;;24.71;58.86
57024;BME280;42916;54.346;18.562;2023-07-13T12:11:15;100207.50;;;25.19;59.55
57024;BME280;42916;54.346;18.562;2023-07-13T12:13:45;100214.16;;;25.64;58.67
57024;BME280;42916;54.346;18.562;2023-07-13T12:16:36;100215.97;;;26.01;57.97
57024;BME280;42916;54.346;18.562;2023-07-13T12:19:02;100212.27;;;26.48;57.03
57024;BME280;42916;54.346;18.562;2023-07-13T12:21:38;100212.36;;;26.77;55.74
57024;BME280;42916;54.346;18.562;2023-07-13T12:24:14;100220.67;;;26.58;54.58
57024;BME280;42916;54.346;18.562;2023-07-13T12:26:41;100221.65;;;26.16;53.99
57024;BME280;42916;54.346;18.562;2023-07-13T12:29:15;100220.48;;;26.03;54.54
57024;BME280;42916;54.346;18.562;2023-07-13T12:31:45;100218.45;;;26.35;55.02
57024;BME280;42916;54.346;18.562;2023-07-13T12:34:15;100216.57;;;26.49;53.81
57024;BME280;42916;54.346;18.562;2023-07-13T12:36:48;100211.92;;;26.21;53.69
57024;BME280;42916;54.346;18.562;2023-07-13T12:39:28;100206.98;;;25.78;53.55
57024;BME280;42916;54.346;18.562;2023-07-13T12:44:41;100211.21;;;24.94;54.47
57024;BME280;42916;54.346;18.562;2023-07-13T12:47:13;100211.03;;;24.64;55.47
57024;BME280;42916;54.346;18.562;2023-07-13T12:49:43;100211.43;;;24.36;56.08
57024;BME280;42916;54.346;18.562;2023-07-13T12:52:21;100213.64;;;24.14;56.57
57024;BME280;42916;54.346;18.562;2023-07-13T12:54:55;100212.24;;;23.78;56.85
57024;BME280;42916;54.346;18.562;2023-07-13T12:57:25;100212.34;;;23.46;58.00
57024;BME280;42916;54.346;18.562;2023-07-13T12:59:54;100203.65;;;23.67;59.18
57024;BME280;42916;54.346;18.562;2023-07-13T13:02:29;100203.75;;;24.17;59.47
57024;BME280;42916;54.346;18.562;2023-07-13T13:05:01;100199.75;;;24.64;58.14
57024;BME280;42916;54.346;18.562;2023-07-13T13:07:30;100198.61;;;25.01;57.31
57024;BME280;42916;54.346;18.562;2023-07-13T13:09:56;100205.15;;;25.57;57.06
57024;BME280;42916;54.346;18.562;2023-07-13T13:12:23;100204.14;;;26.13;55.90
57024;BME280;42916;54.346;18.562;2023-07-13T13:14:53;100198.50;;;26.57;54.82
57024;BME280;42916;54.346;18.562;2023-07-13T13:17:22;100197.61;;;26.95;54.30
57024;BME280;42916;54.346;18.562;2023-07-13T13:19:51;100184.91;;;27.26;52.27
57024;BME280;42916;54.346;18.562;2023-07-13T13:22:21;100182.27;;;27.44;51.48
57024;BME280;42916;54.346;18.562;2023-07-13T13:24:48;100179.27;;;27.42;50.01
57024;BME280;42916;54.346;18.562;2023-07-13T13:27:17;100178.60;;;27.26;49.58
57024;BME280;42916;54.346;18.562;2023-07-13T13:29:45;100182.97;;;27.10;49.10